Time;durP1;ratioP1;P1;durP2;ratioP2;P2;SDS_P1;SDS_P2;PMS_P1;PMS_P2;Temp;Humidity;BMP_temperature;BMP_pressure;BME280_temperature;BME280_humidity;BME280_pressure;Samples;Min_cycle;Max_cycle;Signal;HPM_P1;HPM_P2
2021/10/26 00:02:09;;;;;;;641.03;580.55;;;13.50;99.90;;;;;;5081228;28;20204;-76
2021/10/26 00:04:38;;;;;;;661.50;601.35;;;13.50;99.90;;;;;;5084035;28;20240;-76
2021/10/26 00:07:06;;;;;;;705.03;643.42;;;13.50;99.90;;;;;;5084485;28;20286;-76
2021/10/26 00:09:33;;;;;;;718.20;656.08;;;13.50;99.90;;;;;;5086175;28;20207;-77
2021/10/26 00:12:02;;;;;;;675.53;614.15;;;13.50;99.90;;;;;;5078224;28;20199;-77
2021/10/26 00:14:29;;;;;;;700.83;638.95;;;13.50;99.90;;;;;;5086027;28;20227;-76
2021/10/26 00:16:56;;;;;;;721.65;659.05;;;13.50;99.90;;;;;;5083979;28;20644;-77
2021/10/26 00:19:24;;;;;;;646.75;586.97;;;13.50;99.90;;;;;;5085381;28;20255;-77
2021/10/26 00:21:52;;;;;;;725.70;663.03;;;13.50;99.90;;;;;;5078906;28;20606;-77
2021/10/26 00:24:19;;;;;;;659.08;599.05;;;13.50;99.90;;;;;;5085205;28;20238;-77
2021/10/26 00:26:47;;;;;;;680.70;619.55;;;13.40;99.90;;;;;;5084966;28;20205;-77
2021/10/26 00:29:14;;;;;;;716.55;654.88;;;13.40;99.90;;;;;;5083497;28;20204;-77
2021/10/26 00:31:42;;;;;;;694.72;633.58;;;13.40;99.90;;;;;;5085677;28;20276;-77
2021/10/26 00:34:09;;;;;;;635.15;575.15;;;13.40;99.90;;;;;;5083667;28;20260;-77
2021/10/26 00:36:36;;;;;;;703.38;641.42;;;13.40;99.90;;;;;;5084892;28;20213;-77
2021/10/26 00:39:05;;;;;;;629.13;570.13;;;13.40;99.90;;;;;;5084744;28;20227;-77
2021/10/26 00:41:33;;;;;;;632.17;572.78;;;13.40;99.90;;;;;;5083286;28;20201;-77
2021/10/26 00:44:00;;;;;;;628.85;569.83;;;13.40;99.90;;;;;;5085357;28;20208;-77
2021/10/26 00:46:30;;;;;;;640.28;580.30;;;13.40;99.90;;;;;;5085228;28;20204;-77
2021/10/26 00:48:59;;;;;;;704.25;642.28;;;13.40;99.90;;;;;;5085485;28;20239;-76
2021/10/26 00:51:26;;;;;;;693.55;631.67;;;13.30;99.90;;;;;;5083786;28;20200;-76
2021/10/26 00:53:54;;;;;;;699.50;637.55;;;13.30;99.90;;;;;;5084398;28;20205;-76
2021/10/26 00:56:23;;;;;;;640.20;579.67;;;13.30;99.90;;;;;;5076453;28;20261;-77
2021/10/26 00:58:51;;;;;;;657.85;597.50;;;13.40;99.90;;;;;;5087786;28;20221;-77
2021/10/26 01:01:18;;;;;;;689.95;628.55;;;13.40;99.90;;;;;;5087574;28;20202;-77
2021/10/26 01:03:45;;;;;;;626.70;567.53;;;13.40;99.90;;;;;;5087598;28;20259;-77
2021/10/26 01:06:12;;;;;;;664.80;603.80;;;13.40;99.90;;;;;;5085968;28;20224;-77
2021/10/26 01:08:41;;;;;;;646.17;585.78;;;13.40;99.90;;;;;;5084680;28;20226;-76
2021/10/26 01:11:08;;;;;;;634.80;575.33;;;13.50;99.90;;;;;;5083683;28;20208;-76
2021/10/26 01:13:37;;;;;;;701.40;639.80;;;13.50;99.90;;;;;;5084527;28;20207;-76
2021/10/26 01:16:05;;;;;;;649.67;589.45;;;13.50;99.90;;;;;;5083675;28;20226;-76
2021/10/26 01:18:33;;;;;;;703.72;641.75;;;13.50;99.90;;;;;;5079915;28;20199;-76
2021/10/26 01:21:02;;;;;;;650.58;589.90;;;13.50;99.90;;;;;;5083597;28;20207;-76
2021/10/26 01:23:30;;;;;;;692.55;630.55;;;13.50;99.90;;;;;;5084101;28;20268;-77
2021/10/26 01:25:57;;;;;;;718.10;656.55;;;13.50;99.90;;;;;;5084747;28;20204;-77
2021/10/26 01:28:24;;;;;;;706.58;645.20;;;13.50;99.90;;;;;;5083238;28;20224;-76
2021/10/26 01:30:52;;;;;;;699.00;637.53;;;13.50;99.90;;;;;;5084672;28;20210;-76
2021/10/26 01:33:19;;;;;;;722.17;659.53;;;13.50;99.90;;;;;;5084272;28;20202;-77
2021/10/26 01:35:46;;;;;;;652.55;591.85;;;13.60;99.90;;;;;;5083114;28;20201;-77
2021/10/26 01:38:15;;;;;;;648.70;588.53;;;13.60;99.90;;;;;;5083865;28;20201;-76
2021/10/26 01:40:42;;;;;;;698.67;636.95;;;13.60;99.90;;;;;;5084467;28;20543;-76
2021/10/26 01:43:09;;;;;;;726.20;663.60;;;13.60;99.90;;;;;;5084567;28;20205;-77
2021/10/26 01:45:35;;;;;;;705.22;643.22;;;13.60;99.90;;;;;;5083540;28;20239;-76
2021/10/26 01:48:07;;;;;;;716.08;654.15;;;13.60;99.90;;;;;;5084321;28;20228;-76
2021/10/26 01:50:34;;;;;;;675.83;614.95;;;13.60;99.90;;;;;;5084530;28;20205;-76
2021/10/26 01:53:02;;;;;;;712.92;651.72;;;13.60;99.90;;;;;;5083098;28;20286;-77
2021/10/26 01:55:30;;;;;;;714.17;652.45;;;13.60;99.90;;;;;;5084066;28;20200;-76
2021/10/26 01:57:57;;;;;;;650.08;590.78;;;13.50;99.90;;;;;;5083567;28;20205;-77
2021/10/26 02:00:25;;;;;;;724.25;661.75;;;13.50;99.90;;;;;;5083901;28;20205;-77
2021/10/26 02:02:52;;;;;;;689.22;628.67;;;13.50;99.90;;;;;;5083520;28;20240;-77
2021/10/26 02:05:19;;;;;;;661.30;600.88;;;13.60;99.90;;;;;;5083363;28;20200;-76
2021/10/26 02:07:46;;;;;;;709.25;647.60;;;13.60;99.90;;;;;;5084122;28;20221;-76
2021/10/26 02:10:16;;;;;;;725.03;663.30;;;13.60;99.90;;;;;;5083653;28;20212;-77
2021/10/26 02:12:44;;;;;;;723.33;660.50;;;13.60;99.90;;;;;;5083129;28;20211;-76
2021/10/26 02:15:11;;;;;;;696.05;634.65;;;13.70;99.90;;;;;;5077125;28;20228;-76
2021/10/26 02:17:38;;;;;;;683.20;622.83;;;13.70;99.90;;;;;;5082738;28;20269;-76
2021/10/26 02:20:06;;;;;;;641.58;582.15;;;13.70;99.90;;;;;;5083816;28;20226;-76
2021/10/26 02:22:33;;;;;;;645.63;585.38;;;13.70;99.90;;;;;;5083137;28;20291;-76
2021/10/26 02:25:00;;;;;;;723.55;661.75;;;13.70;99.90;;;;;;5084167;28;20197;-76
2021/10/26 02:27:27;;;;;;;693.70;631.80;;;13.60;99.90;;;;;;5084044;28;20204;-77
2021/10/26 02:29:56;;;;;;;714.55;652.72;;;13.60;99.90;;;;;;5098694;28;20268;-76
2021/10/26 02:32:23;;;;;;;702.85;640.72;;;13.60;99.90;;;;;;5083554;28;20709;-77
2021/10/26 02:34:50;;;;;;;729.40;667.30;;;13.50;99.90;;;;;;5084146;28;20202;-77
2021/10/26 02:37:17;;;;;;;658.50;598.88;;;13.50;99.90;;;;;;5082782;28;20204;-76
2021/10/26 02:39:44;;;;;;;713.28;651.75;;;13.60;99.90;;;;;;5083237;28;20228;-77
2021/10/26 02:42:11;;;;;;;724.20;662.00;;;13.60;99.90;;;;;;5084007;28;20205;-76
2021/10/26 02:44:38;;;;;;;722.45;660.25;;;13.60;99.90;;;;;;5082991;28;20205;-77
2021/10/26 02:47:07;;;;;;;712.78;651.03;;;13.60;99.90;;;;;;5086213;28;20302;-77
2021/10/26 02:49:34;;;;;;;701.00;639.42;;;13.60;99.90;;;;;;5087588;28;20250;-77
2021/10/26 02:52:01;;;;;;;688.20;627.53;;;13.60;99.90;;;;;;5087375;28;20260;-76
2021/10/26 02:54:28;;;;;;;697.25;635.83;;;13.60;99.90;;;;;;5082672;28;20230;-76
2021/10/26 02:56:55;;;;;;;719.85;657.58;;;13.60;99.90;;;;;;5087396;28;20612;-76
2021/10/26 02:59:24;;;;;;;638.65;578.60;;;13.50;99.90;;;;;;5086515;28;20223;-77
2021/10/26 03:01:52;;;;;;;633.40;573.95;;;13.50;99.90;;;;;;5082594;28;20213;-76
2021/10/26 03:04:20;;;;;;;714.65;653.35;;;13.50;99.90;;;;;;5086463;28;20264;-77
2021/10/26 03:06:47;;;;;;;660.75;600.95;;;13.50;99.90;;;;;;5086382;28;20265;-77
2021/10/26 03:09:14;;;;;;;710.60;649.60;;;13.50;99.90;;;;;;5080558;28;20258;-76
2021/10/26 03:11:41;;;;;;;726.97;664.75;;;13.60;99.90;;;;;;5086116;28;20208;-77
2021/10/26 03:14:09;;;;;;;714.95;653.30;;;13.60;99.90;;;;;;5086553;28;20283;-77
2021/10/26 03:16:36;;;;;;;671.47;611.15;;;13.50;99.90;;;;;;5085992;28;20272;-77
2021/10/26 03:19:04;;;;;;;688.92;627.13;;;13.50;99.90;;;;;;5087660;28;20206;-77
2021/10/26 03:21:34;;;;;;;698.47;636.45;;;13.60;99.90;;;;;;5086238;28;20204;-76
2021/10/26 03:24:02;;;;;;;696.58;635.35;;;13.60;99.90;;;;;;5084576;28;20289;-77
2021/10/26 03:26:29;;;;;;;715.55;654.03;;;13.60;99.90;;;;;;5086679;28;20196;-76
2021/10/26 03:28:56;;;;;;;713.05;651.65;;;13.60;99.90;;;;;;5086683;28;20274;-77
2021/10/26 03:31:25;;;;;;;697.28;636.17;;;13.60;99.90;;;;;;5085959;28;20204;-77
2021/10/26 03:33:52;;;;;;;675.75;614.95;;;13.60;99.90;;;;;;5085870;28;20197;-76
2021/10/26 03:36:19;;;;;;;703.70;642.58;;;13.50;99.90;;;;;;5087278;28;20201;-77
2021/10/26 03:38:49;;;;;;;692.33;631.67;;;13.60;99.90;;;;;;5086017;28;20201;-77
2021/10/26 03:41:16;;;;;;;713.28;651.20;;;13.60;99.90;;;;;;5086807;28;20291;-76
2021/10/26 03:43:43;;;;;;;654.45;594.65;;;13.50;99.90;;;;;;5087211;28;20208;-77
2021/10/26 03:46:12;;;;;;;718.70;656.90;;;13.50;99.90;;;;;;5085904;28;20203;-76
2021/10/26 03:48:39;;;;;;;693.35;632.00;;;13.50;99.90;;;;;;5085003;28;20228;-77
2021/10/26 03:51:06;;;;;;;708.80;647.05;;;13.50;99.90;;;;;;5086801;28;20258;-77
2021/10/26 03:53:33;;;;;;;655.47;594.88;;;13.50;99.90;;;;;;5086684;28;20227;-77
2021/10/26 03:56:03;;;;;;;705.95;644.67;;;13.50;99.90;;;;;;5085711;28;20261;-77
2021/10/26 03:58:31;;;;;;;712.30;651.15;;;13.50;99.90;;;;;;5084666;28;20262;-76
2021/10/26 04:01:00;;;;;;;710.65;648.35;;;13.50;99.90;;;;;;5084998;28;20205;-77
2021/10/26 04:03:27;;;;;;;678.38;618.10;;;13.50;99.90;;;;;;5086062;28;20257;-77
2021/10/26 04:06:00;;;;;;;657.63;598.22;;;13.50;99.90;;;;;;5085698;28;20231;-77
2021/10/26 04:08:31;;;;;;;644.50;585.65;;;13.50;99.90;;;;;;5084948;28;20225;-76
2021/10/26 04:11:00;;;;;;;653.78;594.38;;;13.50;99.90;;;;;;5084558;28;20206;-77
2021/10/26 04:13:28;;;;;;;649.65;590.38;;;13.50;99.90;;;;;;5085647;28;20648;-76
2021/10/26 04:15:55;;;;;;;673.20;613.00;;;13.50;99.90;;;;;;5085189;28;20205;-76
2021/10/26 04:18:23;;;;;;;710.22;649.00;;;13.50;99.90;;;;;;5085817;28;20201;-77
2021/10/26 04:20:50;;;;;;;721.28;659.72;;;13.40;99.90;;;;;;5084788;28;20211;-76
2021/10/26 04:23:18;;;;;;;711.42;650.15;;;13.40;99.90;;;;;;5084231;28;20230;-76
2021/10/26 04:25:45;;;;;;;697.28;636.53;;;13.40;99.90;;;;;;5084707;28;20208;-77
2021/10/26 04:28:12;;;;;;;718.10;655.83;;;13.40;99.90;;;;;;5085013;28;20203;-76
2021/10/26 04:30:41;;;;;;;697.95;636.65;;;13.30;99.90;;;;;;5085771;28;20210;-76
2021/10/26 04:33:08;;;;;;;683.72;622.63;;;13.40;99.90;;;;;;5085041;28;20247;-76
2021/10/26 04:35:35;;;;;;;721.80;659.83;;;13.40;99.90;;;;;;5085806;28;20218;-76
2021/10/26 04:38:03;;;;;;;699.13;637.15;;;13.40;99.90;;;;;;5085788;28;20201;-77
2021/10/26 04:40:31;;;;;;;710.65;648.75;;;13.40;99.90;;;;;;5085692;28;20574;-77
2021/10/26 04:42:58;;;;;;;640.15;580.45;;;13.30;99.90;;;;;;5084747;28;20200;-77
2021/10/26 04:45:25;;;;;;;706.30;644.60;;;13.30;99.90;;;;;;5085465;28;20200;-76
2021/10/26 04:47:53;;;;;;;675.40;614.67;;;13.30;99.90;;;;;;5084592;28;20247;-77
2021/10/26 04:50:21;;;;;;;700.75;638.83;;;13.30;99.90;;;;;;5085664;28;20225;-76
2021/10/26 04:52:49;;;;;;;649.45;589.30;;;13.30;99.90;;;;;;5080393;28;20235;-76
2021/10/26 04:55:16;;;;;;;712.15;650.35;;;13.30;99.90;;;;;;5084793;28;20205;-76
2021/10/26 04:57:43;;;;;;;698.63;637.00;;;13.20;99.90;;;;;;5083750;28;20227;-76
2021/10/26 05:00:13;;;;;;;681.28;619.38;;;13.20;99.90;;;;;;5079073;28;20214;-77
2021/10/26 05:02:40;;;;;;;700.05;638.25;;;13.10;99.90;;;;;;5085745;28;20291;-77
2021/10/26 05:05:10;;;;;;;644.90;585.47;;;13.00;99.90;;;;;;5085136;28;20574;-77
2021/10/26 05:07:37;;;;;;;703.28;642.17;;;13.10;99.90;;;;;;5084996;28;20204;-77
2021/10/26 05:10:13;;;;;;;676.88;615.45;;;13.10;99.90;;;;;;5083977;28;20227;-76
2021/10/26 05:12:40;;;;;;;698.85;637.65;;;13.10;99.90;;;;;;5080954;28;20269;-76
2021/10/26 05:15:08;;;;;;;698.40;636.15;;;13.10;99.90;;;;;;5084853;28;20612;-77
2021/10/26 05:17:36;;;;;;;629.75;569.63;;;13.10;99.90;;;;;;5085319;28;20205;-76
2021/10/26 05:20:05;;;;;;;692.67;631.88;;;13.00;99.90;;;;;;5084931;28;20205;-77
2021/10/26 05:22:34;;;;;;;680.70;619.08;;;13.00;99.90;;;;;;5084646;28;20662;-77
2021/10/26 05:25:01;;;;;;;678.95;617.83;;;13.00;99.90;;;;;;5084817;28;20198;-77
2021/10/26 05:27:28;;;;;;;687.92;626.00;;;13.00;99.90;;;;;;5085798;28;20235;-77
2021/10/26 05:29:55;;;;;;;680.50;619.83;;;13.00;99.90;;;;;;5082961;28;20220;-77
2021/10/26 05:32:22;;;;;;;691.42;629.95;;;13.00;99.90;;;;;;5084695;28;20224;-77
2021/10/26 05:34:49;;;;;;;661.50;600.30;;;12.90;99.90;;;;;;5083770;28;20207;-77
2021/10/26 05:37:17;;;;;;;693.05;631.95;;;13.00;99.90;;;;;;5078349;28;20198;-77
2021/10/26 05:39:53;;;;;;;699.05;636.80;;;13.00;99.90;;;;;;5084965;28;20207;-77
2021/10/26 05:42:20;;;;;;;671.10;609.95;;;12.90;99.90;;;;;;5084467;28;20259;-77
2021/10/26 05:44:47;;;;;;;687.17;625.90;;;13.00;99.90;;;;;;5084419;28;20200;-76
2021/10/26 05:47:14;;;;;;;655.08;594.65;;;13.00;99.90;;;;;;5083094;28;20204;-77
2021/10/26 05:49:42;;;;;;;685.45;624.67;;;13.00;99.90;;;;;;5084695;28;20250;-77
2021/10/26 05:52:12;;;;;;;695.33;633.58;;;13.00;99.90;;;;;;5083641;28;20270;-77
2021/10/26 05:54:40;;;;;;;670.13;609.03;;;13.10;99.90;;;;;;5083787;28;20201;-76
2021/10/26 05:57:08;;;;;;;682.65;621.95;;;13.10;99.90;;;;;;5083741;28;20200;-77
2021/10/26 05:59:35;;;;;;;689.13;627.95;;;13.20;99.90;;;;;;5084039;28;20212;-77
2021/10/26 06:02:02;;;;;;;621.60;562.97;;;13.20;99.90;;;;;;5084009;28;20200;-76
2021/10/26 06:04:30;;;;;;;693.58;632.75;;;13.30;99.90;;;;;;5083904;28;20232;-77
2021/10/26 06:06:57;;;;;;;702.03;640.50;;;13.30;99.90;;;;;;5083647;28;20197;-77
2021/10/26 06:09:27;;;;;;;703.55;642.28;;;13.30;99.90;;;;;;5083962;28;20220;-77
2021/10/26 06:11:57;;;;;;;647.17;587.10;;;13.30;99.90;;;;;;5083873;28;20210;-76
2021/10/26 06:14:27;;;;;;;676.47;615.70;;;13.40;99.90;;;;;;5083601;28;20648;-76
2021/10/26 06:16:54;;;;;;;688.75;627.55;;;13.30;99.90;;;;;;5079704;28;20211;-76
2021/10/26 06:19:22;;;;;;;939.97;874.33;;;13.30;99.90;;;;;;5083407;28;20853;-76
2021/10/26 06:21:49;;;;;;;700.65;640.22;;;13.40;99.90;;;;;;5086654;28;20204;-76
2021/10/26 06:24:16;;;;;;;740.00;678.00;;;13.40;99.90;;;;;;5085264;28;20237;-76
2021/10/26 06:26:43;;;;;;;694.78;633.40;;;13.40;99.90;;;;;;5083670;28;20204;-76
2021/10/26 06:29:11;;;;;;;709.80;648.15;;;13.20;99.90;;;;;;5087009;28;20224;-77
2021/10/26 06:31:39;;;;;;;698.67;636.92;;;13.20;99.90;;;;;;5087108;28;20210;-77
2021/10/26 06:34:06;;;;;;;620.00;561.15;;;13.20;99.90;;;;;;5087290;28;20204;-76
2021/10/26 06:36:33;;;;;;;643.88;583.67;;;13.20;99.90;;;;;;5086772;28;20209;-76
2021/10/26 06:39:00;;;;;;;702.88;641.13;;;13.10;99.90;;;;;;5086258;28;20209;-76
2021/10/26 06:41:27;;;;;;;677.50;616.45;;;13.20;99.90;;;;;;5087215;28;20201;-76
2021/10/26 06:43:56;;;;;;;635.47;575.30;;;13.20;99.90;;;;;;5083691;28;20210;-76
2021/10/26 06:46:23;;;;;;;627.85;568.90;;;13.10;99.90;;;;;;5084174;28;20717;-77
2021/10/26 06:48:51;;;;;;;676.50;615.30;;;13.10;99.90;;;;;;5086430;28;20204;-76
2021/10/26 06:51:18;;;;;;;702.95;641.03;;;13.20;99.90;;;;;;5087898;28;20213;-76
2021/10/26 06:53:45;;;;;;;714.63;653.08;;;13.20;99.90;;;;;;5086565;28;20268;-76
2021/10/26 06:56:14;;;;;;;701.42;639.55;;;13.20;99.90;;;;;;5085634;28;20209;-76
2021/10/26 06:58:41;;;;;;;684.92;623.42;;;13.20;99.90;;;;;;5085951;28;20297;-76
2021/10/26 07:01:10;;;;;;;688.42;627.38;;;13.20;99.90;;;;;;5084509;28;20209;-76
2021/10/26 07:03:37;;;;;;;708.90;647.20;;;13.30;99.90;;;;;;5085286;28;20258;-77
2021/10/26 07:06:06;;;;;;;709.05;647.30;;;13.20;99.90;;;;;;5087103;28;20200;-77
2021/10/26 07:08:34;;;;;;;667.83;607.55;;;13.20;99.90;;;;;;5086562;28;20227;-77
2021/10/26 07:11:01;;;;;;;703.55;641.92;;;13.30;99.90;;;;;;5065894;28;20701;-77
2021/10/26 07:13:28;;;;;;;615.38;556.60;;;13.20;99.90;;;;;;5086204;28;20280;-77
2021/10/26 07:15:55;;;;;;;681.47;619.58;;;13.10;99.90;;;;;;5079483;28;20254;-77
2021/10/26 07:18:22;;;;;;;676.40;615.42;;;13.10;99.90;;;;;;5086810;28;20268;-77
2021/10/26 07:20:49;;;;;;;680.15;618.30;;;13.10;99.90;;;;;;5082984;28;20618;-78
2021/10/26 07:23:18;;;;;;;636.80;577.10;;;13.10;99.90;;;;;;5086915;28;20209;-77
2021/10/26 07:25:45;;;;;;;675.35;613.55;;;13.10;99.90;;;;;;5086924;28;20200;-77
2021/10/26 07:28:13;;;;;;;690.40;629.30;;;13.10;99.90;;;;;;5086567;28;20201;-77
2021/10/26 07:30:43;;;;;;;692.50;631.10;;;13.10;99.90;;;;;;5086309;28;20229;-77
2021/10/26 07:33:18;;;;;;;692.35;630.53;;;13.10;99.90;;;;;;5087134;28;20205;-81
2021/10/26 07:35:46;;;;;;;688.05;626.55;;;13.10;99.90;;;;;;5081130;28;20212;-77
2021/10/26 07:43:41;;;;;;;631.35;572.38;;;13.20;99.90;;;;;;5080843;28;20307;-77
2021/10/26 07:48:50;;;;;;;682.92;622.47;;;13.30;99.90;;;;;;5085467;28;20204;-77
2021/10/26 07:51:17;;;;;;;694.83;634.22;;;13.30;99.90;;;;;;5086448;28;20263;-76
2021/10/26 07:53:45;;;;;;;666.58;606.92;;;13.30;99.90;;;;;;5086932;28;20201;-77
2021/10/26 07:56:13;;;;;;;710.40;649.83;;;13.40;99.90;;;;;;5087361;28;20200;-78
2021/10/26 07:58:41;;;;;;;694.83;633.35;;;13.40;99.90;;;;;;5085296;28;20239;-77
2021/10/26 08:01:08;;;;;;;710.45;648.53;;;13.40;99.90;;;;;;5082883;28;20207;-77
2021/10/26 08:03:35;;;;;;;640.70;581.60;;;13.40;99.90;;;;;;5085561;28;20294;-77
2021/10/26 08:06:03;;;;;;;701.28;640.17;;;13.30;99.90;;;;;;5085272;28;20693;-77
2021/10/26 08:08:31;;;;;;;677.03;617.40;;;13.30;99.90;;;;;;5081350;28;20227;-77
2021/10/26 08:10:58;;;;;;;719.05;657.65;;;13.30;99.90;;;;;;5083039;28;20267;-77
2021/10/26 08:13:26;;;;;;;639.22;580.03;;;13.30;99.90;;;;;;5083242;28;20205;-77
2021/10/26 08:15:53;;;;;;;637.45;578.05;;;13.30;99.90;;;;;;5081781;28;20213;-77
2021/10/26 08:18:20;;;;;;;724.95;663.22;;;13.30;99.90;;;;;;5082025;28;20215;-77
2021/10/26 08:20:49;;;;;;;710.05;648.60;;;13.40;99.90;;;;;;5083157;28;20204;-77
2021/10/26 08:23:17;;;;;;;696.20;635.08;;;13.40;99.90;;;;;;5082750;28;20276;-77
2021/10/26 08:25:48;;;;;;;705.20;644.65;;;13.40;99.90;;;;;;5082877;28;20232;-77
2021/10/26 08:28:16;;;;;;;704.83;643.92;;;13.40;99.90;;;;;;5081767;28;20196;-77
2021/10/26 08:30:53;;;;;;;705.72;644.78;;;13.40;99.90;;;;;;5082101;28;20216;-77
2021/10/26 08:33:35;;;;;;;712.22;650.95;;;13.40;99.90;;;;;;5081865;28;20215;-77
2021/10/26 08:36:02;;;;;;;734.75;673.50;;;13.50;99.90;;;;;;5082482;28;20202;-77
2021/10/26 08:38:29;;;;;;;709.40;646.33;;;13.50;99.90;;;;;;5081283;28;20709;-77
2021/10/26 08:40:58;;;;;;;711.10;649.38;;;13.50;99.90;;;;;;5082321;28;20204;-77
2021/10/26 08:43:25;;;;;;;651.35;591.17;;;13.50;99.90;;;;;;5081899;28;20204;-77
2021/10/26 08:45:58;;;;;;;705.42;644.35;;;13.40;99.90;;;;;;5082999;28;20304;-77
2021/10/26 08:48:26;;;;;;;717.95;655.85;;;13.50;99.90;;;;;;5082099;28;20210;-77
2021/10/26 08:50:56;;;;;;;737.83;675.58;;;13.50;99.90;;;;;;5081368;28;20300;-77
2021/10/26 08:53:24;;;;;;;683.72;622.83;;;13.60;99.90;;;;;;5081447;28;20209;-77
2021/10/26 08:55:58;;;;;;;668.40;608.78;;;13.50;99.90;;;;;;5081580;28;20398;-77
2021/10/26 08:58:26;;;;;;;642.92;583.60;;;13.50;99.90;;;;;;5080615;28;20212;-77
2021/10/26 09:00:55;;;;;;;691.25;630.97;;;13.70;99.90;;;;;;5082329;28;20204;-77
2021/10/26 09:03:24;;;;;;;668.63;608.70;;;13.80;99.90;;;;;;5081289;28;20235;-77
2021/10/26 09:05:53;;;;;;;709.50;647.83;;;13.80;99.90;;;;;;5082197;28;20202;-77
2021/10/26 09:08:21;;;;;;;723.17;662.47;;;13.80;99.90;;;;;;5081194;28;20208;-77
2021/10/26 09:10:49;;;;;;;724.28;662.67;;;13.80;99.90;;;;;;5082331;28;20225;-77
2021/10/26 09:19:16;;;;;;;707.28;646.67;;;13.90;99.90;;;;;;5038500;28;20217;-77
2021/10/26 09:21:45;;;;;;;736.92;675.17;;;13.90;99.90;;;;;;5039451;28;20229;-77
2021/10/26 09:24:14;;;;;;;742.67;681.67;;;14.00;99.90;;;;;;5037958;28;20268;-77
2021/10/26 09:26:49;;;;;;;739.40;677.72;;;13.90;99.90;;;;;;5039421;28;20224;-77
2021/10/26 09:29:18;;;;;;;722.97;662.40;;;13.90;99.90;;;;;;5038118;28;20206;-77
2021/10/26 09:31:47;;;;;;;727.65;666.10;;;13.90;99.90;;;;;;5039472;28;20279;-77
2021/10/26 09:34:17;;;;;;;737.13;676.22;;;14.00;99.90;;;;;;5040214;28;20412;-74
2021/10/26 09:36:45;;;;;;;740.63;679.70;;;14.00;99.90;;;;;;5038757;28;20205;-73
2021/10/26 09:39:19;;;;;;;746.05;684.92;;;14.10;99.90;;;;;;5036929;28;20233;-74
2021/10/26 09:42:10;;;;;;;740.38;679.03;;;14.10;99.90;;;;;;5038021;28;20206;-74
2021/10/26 09:44:47;;;;;;;673.70;615.15;;;14.20;99.90;;;;;;5038051;28;20203;-74
2021/10/26 09:47:23;;;;;;;696.33;637.17;;;14.30;99.90;;;;;;5038395;28;20210;-74
2021/10/26 09:50:02;;;;;;;737.42;676.90;;;14.30;99.90;;;;;;5037806;28;20211;-74
2021/10/26 09:52:30;;;;;;;747.33;686.15;;;14.30;99.90;;;;;;5037444;28;20209;-74
2021/10/26 09:55:11;;;;;;;759.40;698.28;;;14.30;99.90;;;;;;5056580;28;20208;-76
2021/10/26 09:57:40;;;;;;;700.50;640.58;;;14.40;99.90;;;;;;5081902;28;20268;-78
2021/10/26 10:00:08;;;;;;;760.45;699.53;;;14.50;99.90;;;;;;5083290;28;20201;-79
2021/10/26 10:05:09;;;;;;;765.25;702.72;;;14.50;99.90;;;;;;5121364;27;20585;-78
2021/10/26 10:07:38;;;;;;;771.88;709.35;;;14.50;99.90;;;;;;5121009;28;20218;-79
2021/10/26 10:13:02;;;;;;;742.13;679.15;;;14.40;99.90;;;;;;5121326;28;20215;-78
2021/10/26 10:15:36;;;;;;;754.15;691.67;;;14.40;99.90;;;;;;5120108;28;20229;-78
2021/10/26 10:26:10;;;;;;;728.90;667.75;;;14.50;99.90;;;;;;5120751;28;20256;-78
2021/10/26 10:28:45;;;;;;;791.38;728.65;;;14.60;99.90;;;;;;5120259;28;20213;-78
2021/10/26 10:31:14;;;;;;;793.25;730.40;;;14.70;99.90;;;;;;5120621;28;20221;-78
2021/10/26 10:33:44;;;;;;;802.78;738.83;;;14.90;99.90;;;;;;5121547;28;20217;-78
2021/10/26 10:36:28;;;;;;;741.92;680.53;;;14.90;99.90;;;;;;5120883;28;20209;-78
2021/10/26 10:39:04;;;;;;;794.03;730.30;;;15.00;99.90;;;;;;5126334;28;20201;-78
2021/10/26 10:47:37;;;;;;;775.50;714.03;;;15.00;99.90;;;;;;5116976;28;20227;-77
2021/10/26 10:50:25;;;;;;;807.58;745.28;;;15.10;99.90;;;;;;5118783;28;20208;-77
2021/10/26 10:53:11;;;;;;;811.88;748.17;;;15.10;99.90;;;;;;5117815;28;20216;-77
2021/10/26 10:58:30;;;;;;;815.50;751.83;;;15.20;99.90;;;;;;5121292;28;20214;-77
2021/10/26 11:01:35;;;;;;;778.25;716.58;;;15.40;99.90;;;;;;5117560;28;20220;-77
2021/10/26 11:04:33;;;;;;;805.05;743.60;;;15.50;99.90;;;;;;5118208;28;20231;-77
2021/10/26 11:07:00;;;;;;;828.00;765.13;;;15.50;99.90;;;;;;5122255;28;20238;-78
2021/10/26 11:12:34;;;;;;;816.42;753.75;;;15.60;99.90;;;;;;5122612;28;20211;-78
2021/10/26 11:15:13;;;;;;;826.38;764.22;;;15.60;99.90;;;;;;5114727;28;20202;-79
2021/10/26 11:18:01;;;;;;;838.47;775.08;;;15.70;99.90;;;;;;5111795;28;20204;-79
2021/10/26 11:20:51;;;;;;;797.70;736.03;;;15.70;99.90;;;;;;5109802;28;20256;-80
2021/10/26 11:23:36;;;;;;;833.90;771.22;;;15.70;99.90;;;;;;5109301;28;20231;-79
2021/10/26 11:26:20;;;;;;;775.88;713.72;;;15.70;99.90;;;;;;5110575;28;20220;-79
2021/10/26 11:28:54;;;;;;;814.08;751.30;;;15.60;99.90;;;;;;5109506;28;20196;-79
2021/10/26 11:31:26;;;;;;;840.25;777.33;;;15.50;99.90;;;;;;5108746;28;20229;-79
2021/10/26 11:39:20;;;;;;;786.72;724.38;;;15.60;99.90;;;;;;5110211;28;20190;-79
2021/10/26 11:49:58;;;;;;;823.08;760.22;;;15.70;99.90;;;;;;5109757;28;20209;-79
2021/10/26 11:58:12;;;;;;;814.50;752.22;;;15.70;99.90;;;;;;5108623;28;20238;-78
2021/10/26 12:00:39;;;;;;;827.33;763.92;;;15.80;99.90;;;;;;5082820;28;20206;-78
2021/10/26 12:03:06;;;;;;;833.83;770.53;;;15.70;99.90;;;;;;5108739;28;20250;-78
2021/10/26 12:08:24;;;;;;;787.85;725.60;;;15.90;99.90;;;;;;5106137;28;20205;-77
2021/10/26 12:11:05;;;;;;;822.25;758.72;;;15.90;99.90;;;;;;5106002;28;20204;-76
2021/10/26 12:13:33;;;;;;;820.88;758.08;;;16.00;99.90;;;;;;5107813;28;20649;-77
2021/10/26 12:16:13;;;;;;;853.85;789.95;;;16.10;99.90;;;;;;5108557;28;20213;-77
2021/10/26 12:18:40;;;;;;;837.28;774.53;;;16.20;99.90;;;;;;5105001;28;20193;-76
2021/10/26 12:21:07;;;;;;;811.15;748.92;;;16.10;99.90;;;;;;5102597;28;20619;-77
2021/10/26 12:26:15;;;;;;;866.72;803.03;;;16.10;99.90;;;;;;5099225;28;20233;-78
2021/10/26 12:28:55;;;;;;;846.50;783.47;;;16.10;99.90;;;;;;5104260;28;20283;-79
2021/10/26 12:31:28;;;;;;;836.88;776.17;;;16.10;99.90;;;;;;5105917;28;20200;-78
2021/10/26 12:34:00;;;;;;;869.83;807.88;;;16.20;99.90;;;;;;5104362;28;20263;-77
2021/10/26 12:39:09;;;;;;;806.47;743.70;;;16.10;99.90;;;;;;5103009;28;20208;-77
2021/10/26 12:41:38;;;;;;;846.95;782.65;;;16.10;99.90;;;;;;5101833;28;20206;-77
2021/10/26 12:44:12;;;;;;;808.38;745.22;;;16.10;99.90;;;;;;5101260;28;20233;-78
2021/10/26 12:49:20;;;;;;;847.53;784.15;;;16.00;99.90;;;;;;5102963;28;20214;-78
2021/10/26 12:51:47;;;;;;;842.28;779.42;;;16.10;99.90;;;;;;5101433;28;20198;-77
2021/10/26 12:54:17;;;;;;;855.20;794.17;;;16.20;99.90;;;;;;5102683;28;20201;-77
2021/10/26 12:56:48;;;;;;;845.92;784.88;;;16.10;99.90;;;;;;5101301;28;20202;-76
2021/10/26 12:59:16;;;;;;;807.78;747.67;;;16.10;99.90;;;;;;5100489;28;20199;-76
2021/10/26 13:01:46;;;;;;;848.25;787.22;;;16.10;99.90;;;;;;5101173;28;20200;-75
2021/10/26 13:04:21;;;;;;;856.47;795.40;;;16.10;99.90;;;;;;5099504;28;20238;-76
2021/10/26 13:06:50;;;;;;;848.88;788.50;;;16.10;99.90;;;;;;5101779;28;20194;-77
2021/10/26 13:09:35;;;;;;;857.50;797.00;;;16.10;99.90;;;;;;5102192;28;20205;-77
2021/10/26 13:12:12;;;;;;;802.85;744.13;;;16.00;99.90;;;;;;5100225;28;20220;-77
2021/10/26 13:14:44;;;;;;;806.67;746.67;;;16.10;99.90;;;;;;5100690;28;20213;-77
2021/10/26 13:17:34;;;;;;;841.17;780.60;;;16.10;99.90;;;;;;5102093;28;20197;-77
2021/10/26 13:20:27;;;;;;;820.28;760.90;;;16.10;99.90;;;;;;5101196;28;20209;-77
2021/10/26 13:23:05;;;;;;;793.42;733.75;;;16.10;99.90;;;;;;5100580;28;20206;-77
2021/10/26 13:25:37;;;;;;;844.22;784.47;;;16.10;99.90;;;;;;5100370;28;20248;-77
2021/10/26 13:28:06;;;;;;;820.28;760.60;;;16.10;99.90;;;;;;5100635;28;20266;-76
2021/10/26 13:30:45;;;;;;;800.63;742.35;;;16.00;99.90;;;;;;5100593;28;20205;-76